createdAt,value
2022-10-30T12:17:26.352Z,25.61
2022-10-30T12:18:26.321Z,26.17
2022-10-30T12:19:26.297Z,26.75
2022-10-30T12:20:26.290Z,27.12
2022-10-30T12:21:26.290Z,26.92
2022-10-30T12:22:26.258Z,27.06
2022-10-30T12:23:26.242Z,27.18
2022-10-30T12:24:26.229Z,26.92
2022-10-30T12:25:26.223Z,26.84
2022-10-30T12:26:26.220Z,26.58
2022-10-30T12:27:26.195Z,26.55
2022-10-30T12:28:26.188Z,26.44
2022-10-30T12:29:36.501Z,26.65
2022-10-30T12:30:26.148Z,26.50
2022-10-30T12:31:26.177Z,26.28
2022-10-30T12:32:26.129Z,26.43
2022-10-30T12:33:26.118Z,26.45
2022-10-30T12:34:26.096Z,26.51
2022-10-30T12:35:26.090Z,26.50
2022-10-30T12:36:26.082Z,26.55
2022-10-30T12:37:26.068Z,26.81
2022-10-30T12:38:26.053Z,26.12
2022-10-30T12:39:26.043Z,25.94
2022-10-30T12:40:26.026Z,25.85
2022-10-30T12:41:26.053Z,25.73
2022-10-30T12:42:25.993Z,25.65
2022-10-30T12:43:25.978Z,25.54
2022-10-30T12:44:25.967Z,25.18
2022-10-30T12:45:25.953Z,25.23
2022-10-30T12:46:25.960Z,25.36
2022-10-30T12:47:25.934Z,25.42
2022-10-30T12:48:25.914Z,25.30
2022-10-30T12:49:25.912Z,25.30
2022-10-30T12:50:25.892Z,25.25
2022-10-30T12:51:25.897Z,25.36
2022-10-30T12:52:25.867Z,25.32
2022-10-30T12:53:25.859Z,25.30
2022-10-30T12:54:25.852Z,25.38
2022-10-30T12:55:25.837Z,25.35
2022-10-30T12:56:25.840Z,25.23
2022-10-30T12:57:25.803Z,25.08
2022-10-30T12:58:25.799Z,25.14
2022-10-30T12:59:25.774Z,24.96
2022-10-30T13:00:25.763Z,24.73
2022-10-30T13:01:25.873Z,24.64
2022-10-30T13:02:25.784Z,24.47
2022-10-30T13:03:25.730Z,24.34
2022-10-30T13:04:25.725Z,24.15
2022-10-30T13:05:25.713Z,24.27
2022-10-30T13:06:25.808Z,24.34
2022-10-30T13:07:25.678Z,24.24
2022-10-30T13:08:25.675Z,24.37
2022-10-30T13:09:25.660Z,24.22
2022-10-30T13:10:25.649Z,24.50
2022-10-30T13:11:25.647Z,24.47
2022-10-30T13:12:25.620Z,24.52
2022-10-30T13:13:25.610Z,24.57
2022-10-30T13:14:25.590Z,24.55
2022-10-30T13:15:25.584Z,24.76
2022-10-30T13:16:25.577Z,24.65
2022-10-30T13:17:25.562Z,24.65
2022-10-30T13:18:25.551Z,24.62
2022-10-30T13:19:25.534Z,24.64
2022-10-30T13:20:25.525Z,24.71
2022-10-30T13:21:25.521Z,24.71
2022-10-30T13:22:25.493Z,24.81
2022-10-30T13:23:25.476Z,24.81
2022-10-30T13:24:25.460Z,24.69
2022-10-30T13:25:25.457Z,24.65
2022-10-30T13:51:32.224Z,23.16
2022-10-30T13:53:29.737Z,23.02
2022-10-30T13:54:29.722Z,23.01
2022-10-30T13:55:29.704Z,23.10
